Terminal Aerodrome Forecast
Issued by NWS

Home | Current Version | Previous Version | Graphics & Text | Print | Product List | Glossary On
Versions: 1 2 3 4 5 6 7 8 9 10 11 12 13 14 15 16 17 18 19 20
000
FTUS43 KBIS 292300
TAFMOT
TAF
KMOT 292326Z 3000/3024 VRB05KT P6SM BKN015
     FM300100 17007KT P6SM SCT150
     FM301600 30013KT P6SM SCT150=

USA.gov is the U.S. government's official web portal to all federal, state and local government web resources and services.